GNV weather

Gainesville Regional Airport
Gainesville, Florida, United States

Public forecast

Using degrees Fahrenheit for public forecast. Weather courtesy of forecast.io.

Current aviation weather report (METAR) for Gainesville Regional Airport

Retrieved 2019/12/07 17:53 UTC (42 minutes ago):

KGNV 071753Z VRB03KT 10SM FEW110 22/08 A3018 RMK AO2 SLP221 T02220083 10222 20056 58015

Aviation forecast (TAF) for Gainesville Regional Airport

Retrieved 2019/12/07 18:24 UTC (11 minutes ago):

TAF KGNV 071723Z 0718/0818 06007KT P6SM SCT080 SCT250 FM080200 05004KT P6SM BKN040 BKN120 FM080900 02004KT P6SM SCT015 BKN025 FM081500 06007KT P6SM OVC020